sensor_id;sensor_type;location;lat;lon;timestamp;temperature;humidity
5930;DHT22;2990;48.746;9.236;2024-03-22T00:01:11;8.90;1.00
5930;DHT22;2990;48.746;9.236;2024-03-22T00:03:36;8.90;1.00
5930;DHT22;2990;48.746;9.236;2024-03-22T00:06:02;8.80;1.00
5930;DHT22;2990;48.746;9.236;2024-03-22T00:08:28;8.90;1.00
5930;DHT22;2990;48.746;9.236;2024-03-22T00:10:53;8.80;1.00
5930;DHT22;2990;48.746;9.236;2024-03-22T00:13:19;8.80;1.00
5930;DHT22;2990;48.746;9.236;2024-03-22T00:15:44;8.80;1.00
5930;DHT22;2990;48.746;9.236;2024-03-22T00:18:11;8.80;1.00
5930;DHT22;2990;48.746;9.236;2024-03-22T00:20:37;8.80;1.00
5930;DHT22;2990;48.746;9.236;2024-03-22T00:23:03;9.00;1.00
5930;DHT22;2990;48.746;9.236;2024-03-22T00:25:28;8.80;1.00
5930;DHT22;2990;48.746;9.236;2024-03-22T00:27:55;8.90;1.00
5930;DHT22;2990;48.746;9.236;2024-03-22T00:30:21;8.90;1.00
5930;DHT22;2990;48.746;9.236;2024-03-22T00:32:46;9.00;1.00
5930;DHT22;2990;48.746;9.236;2024-03-22T00:35:13;8.80;1.00
5930;DHT22;2990;48.746;9.236;2024-03-22T00:37:38;8.80;1.00
5930;DHT22;2990;48.746;9.236;2024-03-22T00:40:05;8.80;1.00
5930;DHT22;2990;48.746;9.236;2024-03-22T00:42:31;8.80;1.00
5930;DHT22;2990;48.746;9.236;2024-03-22T00:44:56;8.80;1.00
5930;DHT22;2990;48.746;9.236;2024-03-22T00:47:24;8.80;1.00
5930;DHT22;2990;48.746;9.236;2024-03-22T00:49:50;8.70;1.00
5930;DHT22;2990;48.746;9.236;2024-03-22T00:52:16;8.80;1.00
5930;DHT22;2990;48.746;9.236;2024-03-22T00:54:42;8.70;1.00
5930;DHT22;2990;48.746;9.236;2024-03-22T00:57:08;8.60;1.00
5930;DHT22;2990;48.746;9.236;2024-03-22T00:59:34;8.60;1.00
5930;DHT22;2990;48.746;9.236;2024-03-22T01:02:18;8.60;1.00
5930;DHT22;2990;48.746;9.236;2024-03-22T01:04:48;8.60;1.00
5930;DHT22;2990;48.746;9.236;2024-03-22T01:07:14;8.50;1.00
5930;DHT22;2990;48.746;9.236;2024-03-22T01:09:39;8.50;1.00
5930;DHT22;2990;48.746;9.236;2024-03-22T01:12:05;8.50;1.00
5930;DHT22;2990;48.746;9.236;2024-03-22T01:14:31;8.40;1.00
5930;DHT22;2990;48.746;9.236;2024-03-22T01:16:57;8.40;1.00
5930;DHT22;2990;48.746;9.236;2024-03-22T01:19:22;8.40;1.00
5930;DHT22;2990;48.746;9.236;2024-03-22T01:21:49;8.40;1.00
5930;DHT22;2990;48.746;9.236;2024-03-22T01:24:14;8.40;1.00
5930;DHT22;2990;48.746;9.236;2024-03-22T01:26:40;8.30;1.00
5930;DHT22;2990;48.746;9.236;2024-03-22T01:29:06;8.30;1.00
5930;DHT22;2990;48.746;9.236;2024-03-22T01:31:32;8.40;1.00
5930;DHT22;2990;48.746;9.236;2024-03-22T01:33:58;8.30;1.00
5930;DHT22;2990;48.746;9.236;2024-03-22T01:36:23;8.30;1.00
5930;DHT22;2990;48.746;9.236;2024-03-22T01:38:49;8.20;1.00
5930;DHT22;2990;48.746;9.236;2024-03-22T01:41:15;8.10;1.00
5930;DHT22;2990;48.746;9.236;2024-03-22T01:43:40;8.10;1.00
5930;DHT22;2990;48.746;9.236;2024-03-22T01:46:07;8.00;1.00
5930;DHT22;2990;48.746;9.236;2024-03-22T01:48:34;7.80;1.00
5930;DHT22;2990;48.746;9.236;2024-03-22T01:51:00;7.80;1.00
5930;DHT22;2990;48.746;9.236;2024-03-22T01:53:26;7.70;1.00
5930;DHT22;2990;48.746;9.236;2024-03-22T01:55:51;7.60;1.00
5930;DHT22;2990;48.746;9.236;2024-03-22T01:58:18;7.50;1.00
5930;DHT22;2990;48.746;9.236;2024-03-22T02:00:45;7.50;15.50
5930;DHT22;2990;48.746;9.236;2024-03-22T02:03:11;7.40;23.70
5930;DHT22;2990;48.746;9.236;2024-03-22T02:05:36;7.40;34.30
5930;DHT22;2990;48.746;9.236;2024-03-22T02:08:02;7.30;44.60
5930;DHT22;2990;48.746;9.236;2024-03-22T02:10:29;7.30;58.20
5930;DHT22;2990;48.746;9.236;2024-03-22T02:12:55;7.20;68.80
5930;DHT22;2990;48.746;9.236;2024-03-22T02:15:20;7.10;69.50
5930;DHT22;2990;48.746;9.236;2024-03-22T02:17:46;7.10;79.60
5930;DHT22;2990;48.746;9.236;2024-03-22T02:20:12;7.10;80.90
5930;DHT22;2990;48.746;9.236;2024-03-22T02:22:38;7.10;72.50
5930;DHT22;2990;48.746;9.236;2024-03-22T02:25:04;7.10;72.80
5930;DHT22;2990;48.746;9.236;2024-03-22T02:27:30;7.10;77.10
5930;DHT22;2990;48.746;9.236;2024-03-22T02:29:56;7.10;69.90
5930;DHT22;2990;48.746;9.236;2024-03-22T02:32:33;7.10;59.70
5930;DHT22;2990;48.746;9.236;2024-03-22T02:35:05;7.10;53.10
5930;DHT22;2990;48.746;9.236;2024-03-22T02:38:00;7.10;58.40
5930;DHT22;2990;48.746;9.236;2024-03-22T02:40:51;7.10;90.70
5930;DHT22;2990;48.746;9.236;2024-03-22T02:43:26;7.10;92.40
5930;DHT22;2990;48.746;9.236;2024-03-22T02:48:23;7.10;79.10
5930;DHT22;2990;48.746;9.236;2024-03-22T02:50:48;7.10;69.10
5930;DHT22;2990;48.746;9.236;2024-03-22T02:53:14;7.10;63.30
5930;DHT22;2990;48.746;9.236;2024-03-22T02:55:40;7.20;49.70
5930;DHT22;2990;48.746;9.236;2024-03-22T02:58:07;7.30;45.00
5930;DHT22;2990;48.746;9.236;2024-03-22T03:00:39;7.30;27.20
5930;DHT22;2990;48.746;9.236;2024-03-22T03:03:05;7.30;1.00
5930;DHT22;2990;48.746;9.236;2024-03-22T03:05:31;7.40;1.00
5930;DHT22;2990;48.746;9.236;2024-03-22T03:07:57;7.40;1.00
5930;DHT22;2990;48.746;9.236;2024-03-22T03:10:22;7.50;1.00
5930;DHT22;2990;48.746;9.236;2024-03-22T03:12:48;7.50;1.00
5930;DHT22;2990;48.746;9.236;2024-03-22T03:15:14;7.60;1.00
5930;DHT22;2990;48.746;9.236;2024-03-22T03:17:39;7.60;1.00
5930;DHT22;2990;48.746;9.236;2024-03-22T03:20:05;7.60;1.00
5930;DHT22;2990;48.746;9.236;2024-03-22T03:22:34;7.70;1.00
5930;DHT22;2990;48.746;9.236;2024-03-22T03:25:00;7.80;1.00
5930;DHT22;2990;48.746;9.236;2024-03-22T03:27:25;7.70;1.00
5930;DHT22;2990;48.746;9.236;2024-03-22T03:29:51;7.80;1.00
5930;DHT22;2990;48.746;9.236;2024-03-22T03:32:16;7.80;1.00
5930;DHT22;2990;48.746;9.236;2024-03-22T03:34:42;7.70;1.00
5930;DHT22;2990;48.746;9.236;2024-03-22T03:37:07;7.70;1.00
5930;DHT22;2990;48.746;9.236;2024-03-22T03:39:33;7.70;1.00
5930;DHT22;2990;48.746;9.236;2024-03-22T03:41:58;7.70;1.00
5930;DHT22;2990;48.746;9.236;2024-03-22T03:44:24;7.60;1.00
5930;DHT22;2990;48.746;9.236;2024-03-22T03:46:49;7.60;1.00
5930;DHT22;2990;48.746;9.236;2024-03-22T03:49:15;7.60;1.00
5930;DHT22;2990;48.746;9.236;2024-03-22T03:51:41;7.60;1.00
5930;DHT22;2990;48.746;9.236;2024-03-22T03:54:06;7.60;1.00
5930;DHT22;2990;48.746;9.236;2024-03-22T03:56:32;7.60;1.00
5930;DHT22;2990;48.746;9.236;2024-03-22T03:58:57;7.50;1.00
5930;DHT22;2990;48.746;9.236;2024-03-22T04:01:23;7.50;1.00
5930;DHT22;2990;48.746;9.236;2024-03-22T04:03:49;7.50;1.00
5930;DHT22;2990;48.746;9.236;2024-03-22T04:06:15;7.50;1.00
5930;DHT22;2990;48.746;9.236;2024-03-22T04:08:40;7.50;1.00
5930;DHT22;2990;48.746;9.236;2024-03-22T04:11:06;7.60;1.00
5930;DHT22;2990;48.746;9.236;2024-03-22T04:13:31;7.60;1.00
5930;DHT22;2990;48.746;9.236;2024-03-22T04:15:59;7.60;1.00
5930;DHT22;2990;48.746;9.236;2024-03-22T04:18:24;7.50;1.00
5930;DHT22;2990;48.746;9.236;2024-03-22T04:20:54;7.60;1.00
5930;DHT22;2990;48.746;9.236;2024-03-22T04:23:20;7.60;1.00
5930;DHT22;2990;48.746;9.236;2024-03-22T04:25:57;7.60;1.00
5930;DHT22;2990;48.746;9.236;2024-03-22T04:28:24;7.60;1.00
5930;DHT22;2990;48.746;9.236;2024-03-22T04:31:03;7.60;1.00
5930;DHT22;2990;48.746;9.236;2024-03-22T04:33:29;7.60;1.00
5930;DHT22;2990;48.746;9.236;2024-03-22T04:35:56;7.60;1.00
5930;DHT22;2990;48.746;9.236;2024-03-22T04:38:22;7.60;1.00
5930;DHT22;2990;48.746;9.236;2024-03-22T04:40:48;7.70;1.00
5930;DHT22;2990;48.746;9.236;2024-03-22T04:43:14;7.70;1.00
5930;DHT22;2990;48.746;9.236;2024-03-22T04:45:45;7.70;1.00
5930;DHT22;2990;48.746;9.236;2024-03-22T04:48:13;7.80;1.00
5930;DHT22;2990;48.746;9.236;2024-03-22T04:50:38;7.80;1.00
5930;DHT22;2990;48.746;9.236;2024-03-22T04:53:04;7.80;1.00
5930;DHT22;2990;48.746;9.236;2024-03-22T04:55:31;7.90;1.00
5930;DHT22;2990;48.746;9.236;2024-03-22T04:57:56;7.90;1.00
5930;DHT22;2990;48.746;9.236;2024-03-22T05:00:22;8.00;1.00
5930;DHT22;2990;48.746;9.236;2024-03-22T05:02:47;8.10;1.00
5930;DHT22;2990;48.746;9.236;2024-03-22T05:05:13;8.10;1.00
5930;DHT22;2990;48.746;9.236;2024-03-22T05:07:39;8.10;1.00
5930;DHT22;2990;48.746;9.236;2024-03-22T05:10:04;8.10;1.00
5930;DHT22;2990;48.746;9.236;2024-03-22T05:12:31;8.10;1.00
5930;DHT22;2990;48.746;9.236;2024-03-22T05:14:56;8.20;1.00
5930;DHT22;2990;48.746;9.236;2024-03-22T05:17:22;8.20;1.00
5930;DHT22;2990;48.746;9.236;2024-03-22T05:19:47;8.20;1.00
5930;DHT22;2990;48.746;9.236;2024-03-22T05:22:13;8.20;1.00
5930;DHT22;2990;48.746;9.236;2024-03-22T05:24:39;8.20;1.00
5930;DHT22;2990;48.746;9.236;2024-03-22T05:27:04;8.20;1.00
5930;DHT22;2990;48.746;9.236;2024-03-22T05:29:30;8.20;1.00
5930;DHT22;2990;48.746;9.236;2024-03-22T05:31:55;8.20;1.00
5930;DHT22;2990;48.746;9.236;2024-03-22T05:34:22;8.10;1.00
5930;DHT22;2990;48.746;9.236;2024-03-22T05:36:48;8.10;1.00
5930;DHT22;2990;48.746;9.236;2024-03-22T05:39:14;8.10;1.00
5930;DHT22;2990;48.746;9.236;2024-03-22T05:41:40;8.20;1.00
5930;DHT22;2990;48.746;9.236;2024-03-22T05:44:06;8.20;1.00
5930;DHT22;2990;48.746;9.236;2024-03-22T05:46:31;8.20;1.00
5930;DHT22;2990;48.746;9.236;2024-03-22T05:48:58;8.20;1.00
5930;DHT22;2990;48.746;9.236;2024-03-22T05:51:26;8.20;1.00
5930;DHT22;2990;48.746;9.236;2024-03-22T05:53:52;8.20;1.00
5930;DHT22;2990;48.746;9.236;2024-03-22T05:56:18;8.30;1.00
5930;DHT22;2990;48.746;9.236;2024-03-22T05:58:44;8.30;1.00
5930;DHT22;2990;48.746;9.236;2024-03-22T06:01:09;8.30;1.00
5930;DHT22;2990;48.746;9.236;2024-03-22T06:03:35;8.30;1.00
5930;DHT22;2990;48.746;9.236;2024-03-22T06:06:00;8.30;1.00
5930;DHT22;2990;48.746;9.236;2024-03-22T06:08:29;8.30;1.00
5930;DHT22;2990;48.746;9.236;2024-03-22T06:10:57;8.40;1.00
5930;DHT22;2990;48.746;9.236;2024-03-22T06:13:22;8.40;1.00
5930;DHT22;2990;48.746;9.236;2024-03-22T06:15:49;8.40;1.00
5930;DHT22;2990;48.746;9.236;2024-03-22T06:18:15;8.40;1.00
5930;DHT22;2990;48.746;9.236;2024-03-22T06:20:41;8.40;1.00
5930;DHT22;2990;48.746;9.236;2024-03-22T06:23:07;8.30;1.00
5930;DHT22;2990;48.746;9.236;2024-03-22T06:25:33;8.20;1.00
5930;DHT22;2990;48.746;9.236;2024-03-22T06:27:59;8.10;1.00
5930;DHT22;2990;48.746;9.236;2024-03-22T06:30:25;8.00;1.00
5930;DHT22;2990;48.746;9.236;2024-03-22T06:32:50;7.90;1.00
5930;DHT22;2990;48.746;9.236;2024-03-22T06:35:16;7.90;1.00
5930;DHT22;2990;48.746;9.236;2024-03-22T06:37:41;7.90;1.00
5930;DHT22;2990;48.746;9.236;2024-03-22T06:40:08;7.90;1.00
5930;DHT22;2990;48.746;9.236;2024-03-22T06:42:33;7.90;1.00
5930;DHT22;2990;48.746;9.236;2024-03-22T06:44:59;8.00;1.00
5930;DHT22;2990;48.746;9.236;2024-03-22T06:47:24;8.10;1.00
5930;DHT22;2990;48.746;9.236;2024-03-22T06:49:50;8.20;1.00
5930;DHT22;2990;48.746;9.236;2024-03-22T06:52:16;8.30;1.00
5930;DHT22;2990;48.746;9.236;2024-03-22T06:54:43;8.40;1.00
5930;DHT22;2990;48.746;9.236;2024-03-22T06:57:09;8.50;1.00
5930;DHT22;2990;48.746;9.236;2024-03-22T06:59:34;8.70;1.00
5930;DHT22;2990;48.746;9.236;2024-03-22T07:02:00;8.90;1.00
5930;DHT22;2990;48.746;9.236;2024-03-22T07:04:26;9.00;1.00
5930;DHT22;2990;48.746;9.236;2024-03-22T07:06:51;9.20;99.90
5930;DHT22;2990;48.746;9.236;2024-03-22T07:09:17;9.30;99.90
5930;DHT22;2990;48.746;9.236;2024-03-22T07:11:43;9.40;1.00
5930;DHT22;2990;48.746;9.236;2024-03-22T07:14:08;9.50;1.00
5930;DHT22;2990;48.746;9.236;2024-03-22T07:16:34;9.60;1.00
5930;DHT22;2990;48.746;9.236;2024-03-22T07:19:02;9.60;1.00
5930;DHT22;2990;48.746;9.236;2024-03-22T07:21:28;9.60;99.90
5930;DHT22;2990;48.746;9.236;2024-03-22T07:23:54;9.70;99.90
5930;DHT22;2990;48.746;9.236;2024-03-22T07:26:20;9.70;99.90
5930;DHT22;2990;48.746;9.236;2024-03-22T07:28:45;9.70;99.90
5930;DHT22;2990;48.746;9.236;2024-03-22T07:31:11;9.70;1.00
5930;DHT22;2990;48.746;9.236;2024-03-22T07:33:36;9.80;99.90
5930;DHT22;2990;48.746;9.236;2024-03-22T07:36:04;9.90;99.90
5930;DHT22;2990;48.746;9.236;2024-03-22T07:38:30;10.00;1.00
5930;DHT22;2990;48.746;9.236;2024-03-22T07:40:56;10.10;99.90
5930;DHT22;2990;48.746;9.236;2024-03-22T07:43:21;10.20;99.90
5930;DHT22;2990;48.746;9.236;2024-03-22T07:45:47;10.40;1.00
5930;DHT22;2990;48.746;9.236;2024-03-22T07:48:12;10.60;74.20
5930;DHT22;2990;48.746;9.236;2024-03-22T07:50:38;10.70;99.90
5930;DHT22;2990;48.746;9.236;2024-03-22T07:53:04;10.90;99.90
5930;DHT22;2990;48.746;9.236;2024-03-22T07:55:29;11.00;99.90
5930;DHT22;2990;48.746;9.236;2024-03-22T07:57:55;11.20;1.00
5930;DHT22;2990;48.746;9.236;2024-03-22T08:00:21;11.30;1.00
5930;DHT22;2990;48.746;9.236;2024-03-22T08:02:47;11.60;1.00
5930;DHT22;2990;48.746;9.236;2024-03-22T08:05:12;11.60;99.90
5930;DHT22;2990;48.746;9.236;2024-03-22T08:07:38;11.90;1.00
5930;DHT22;2990;48.746;9.236;2024-03-22T08:10:04;12.20;1.00
5930;DHT22;2990;48.746;9.236;2024-03-22T08:12:30;12.40;99.90
5930;DHT22;2990;48.746;9.236;2024-03-22T08:14:55;12.60;1.00
5930;DHT22;2990;48.746;9.236;2024-03-22T08:17:21;12.90;99.90
5930;DHT22;2990;48.746;9.236;2024-03-22T08:19:47;13.10;1.00
5930;DHT22;2990;48.746;9.236;2024-03-22T08:22:12;13.30;99.90
5930;DHT22;2990;48.746;9.236;2024-03-22T08:24:38;13.40;99.90
5930;DHT22;2990;48.746;9.236;2024-03-22T08:27:04;13.60;1.00
5930;DHT22;2990;48.746;9.236;2024-03-22T08:29:29;13.90;1.00
5930;DHT22;2990;48.746;9.236;2024-03-22T08:31:55;14.20;1.00
5930;DHT22;2990;48.746;9.236;2024-03-22T08:34:21;14.50;99.90
5930;DHT22;2990;48.746;9.236;2024-03-22T08:36:47;14.80;99.90
5930;DHT22;2990;48.746;9.236;2024-03-22T08:39:12;15.10;9.40
5930;DHT22;2990;48.746;9.236;2024-03-22T08:41:38;15.20;1.00
5930;DHT22;2990;48.746;9.236;2024-03-22T08:44:04;15.30;1.00
5930;DHT22;2990;48.746;9.236;2024-03-22T08:46:30;15.40;1.00
5930;DHT22;2990;48.746;9.236;2024-03-22T08:48:57;15.40;1.00
5930;DHT22;2990;48.746;9.236;2024-03-22T08:51:23;15.30;1.00
5930;DHT22;2990;48.746;9.236;2024-03-22T08:53:48;15.40;1.00
5930;DHT22;2990;48.746;9.236;2024-03-22T08:56:14;15.50;1.00
5930;DHT22;2990;48.746;9.236;2024-03-22T08:58:39;15.50;1.00
5930;DHT22;2990;48.746;9.236;2024-03-22T09:01:05;15.40;1.00
5930;DHT22;2990;48.746;9.236;2024-03-22T09:03:31;15.50;1.00
5930;DHT22;2990;48.746;9.236;2024-03-22T09:05:57;15.60;1.00
5930;DHT22;2990;48.746;9.236;2024-03-22T09:08:23;15.60;1.00
5930;DHT22;2990;48.746;9.236;2024-03-22T09:10:48;15.60;1.00
5930;DHT22;2990;48.746;9.236;2024-03-22T09:13:14;15.70;1.00
5930;DHT22;2990;48.746;9.236;2024-03-22T09:15:40;16.00;1.00
5930;DHT22;2990;48.746;9.236;2024-03-22T09:18:05;16.20;1.00
5930;DHT22;2990;48.746;9.236;2024-03-22T09:20:31;16.10;1.00
5930;DHT22;2990;48.746;9.236;2024-03-22T09:22:57;16.20;1.00
5930;DHT22;2990;48.746;9.236;2024-03-22T09:25:26;16.30;1.00
5930;DHT22;2990;48.746;9.236;2024-03-22T09:27:52;16.30;1.00
5930;DHT22;2990;48.746;9.236;2024-03-22T09:30:18;16.60;99.90
5930;DHT22;2990;48.746;9.236;2024-03-22T09:32:43;16.80;99.90
5930;DHT22;2990;48.746;9.236;2024-03-22T09:35:09;17.00;99.90
5930;DHT22;2990;48.746;9.236;2024-03-22T09:37:36;17.20;99.90
5930;DHT22;2990;48.746;9.236;2024-03-22T09:40:01;17.30;99.90
5930;DHT22;2990;48.746;9.236;2024-03-22T09:42:33;17.60;99.90
5930;DHT22;2990;48.746;9.236;2024-03-22T09:44:58;18.10;99.90
5930;DHT22;2990;48.746;9.236;2024-03-22T09:47:25;18.60;99.90
5930;DHT22;2990;48.746;9.236;2024-03-22T09:49:52;18.80;99.90
5930;DHT22;2990;48.746;9.236;2024-03-22T09:52:19;19.00;99.90
5930;DHT22;2990;48.746;9.236;2024-03-22T09:54:46;19.20;99.90
5930;DHT22;2990;48.746;9.236;2024-03-22T09:57:15;19.30;99.90
5930;DHT22;2990;48.746;9.236;2024-03-22T09:59:44;19.10;99.90
5930;DHT22;2990;48.746;9.236;2024-03-22T10:02:11;19.30;99.90
5930;DHT22;2990;48.746;9.236;2024-03-22T10:04:38;19.40;99.90
5930;DHT22;2990;48.746;9.236;2024-03-22T10:07:04;18.80;99.90
5930;DHT22;2990;48.746;9.236;2024-03-22T10:09:30;19.10;99.90
5930;DHT22;2990;48.746;9.236;2024-03-22T10:11:56;18.90;99.90
5930;DHT22;2990;48.746;9.236;2024-03-22T10:14:22;19.00;99.90
5930;DHT22;2990;48.746;9.236;2024-03-22T10:16:51;19.10;99.90
5930;DHT22;2990;48.746;9.236;2024-03-22T10:19:20;19.30;99.90
5930;DHT22;2990;48.746;9.236;2024-03-22T10:21:46;19.30;99.90
5930;DHT22;2990;48.746;9.236;2024-03-22T10:24:11;19.30;99.90
5930;DHT22;2990;48.746;9.236;2024-03-22T10:26:37;19.10;99.90
5930;DHT22;2990;48.746;9.236;2024-03-22T10:29:06;19.20;99.90
5930;DHT22;2990;48.746;9.236;2024-03-22T10:31:34;19.10;99.90
5930;DHT22;2990;48.746;9.236;2024-03-22T10:34:02;19.20;99.90
5930;DHT22;2990;48.746;9.236;2024-03-22T10:36:30;19.00;99.90
5930;DHT22;2990;48.746;9.236;2024-03-22T10:38:57;19.10;99.90
5930;DHT22;2990;48.746;9.236;2024-03-22T10:41:24;19.30;99.90
5930;DHT22;2990;48.746;9.236;2024-03-22T10:43:50;19.60;73.50
5930;DHT22;2990;48.746;9.236;2024-03-22T10:46:16;19.60;99.90
5930;DHT22;2990;48.746;9.236;2024-03-22T10:48:45;19.70;91.50
5930;DHT22;2990;48.746;9.236;2024-03-22T10:51:12;19.60;92.10
5930;DHT22;2990;48.746;9.236;2024-03-22T10:53:38;19.50;90.30
5930;DHT22;2990;48.746;9.236;2024-03-22T10:56:06;19.50;84.60
5930;DHT22;2990;48.746;9.236;2024-03-22T10:58:32;19.60;97.20
5930;DHT22;2990;48.746;9.236;2024-03-22T11:00:57;19.60;86.70
5930;DHT22;2990;48.746;9.236;2024-03-22T11:03:25;19.50;65.10
5930;DHT22;2990;48.746;9.236;2024-03-22T11:05:55;19.40;66.90
5930;DHT22;2990;48.746;9.236;2024-03-22T11:10:50;19.10;89.50
5930;DHT22;2990;48.746;9.236;2024-03-22T11:13:17;19.10;93.00
5930;DHT22;2990;48.746;9.236;2024-03-22T11:15:42;19.30;97.10
5930;DHT22;2990;48.746;9.236;2024-03-22T11:18:08;19.60;60.70
5930;DHT22;2990;48.746;9.236;2024-03-22T11:20:37;19.80;35.60
5930;DHT22;2990;48.746;9.236;2024-03-22T11:23:06;20.00;39.20
5930;DHT22;2990;48.746;9.236;2024-03-22T11:25:32;20.30;43.00
5930;DHT22;2990;48.746;9.236;2024-03-22T11:27:59;20.30;43.10
5930;DHT22;2990;48.746;9.236;2024-03-22T11:30:27;20.10;33.30
5930;DHT22;2990;48.746;9.236;2024-03-22T11:32:53;20.10;28.20
5930;DHT22;2990;48.746;9.236;2024-03-22T11:35:19;20.10;27.40
5930;DHT22;2990;48.746;9.236;2024-03-22T11:37:45;20.10;30.50
5930;DHT22;2990;48.746;9.236;2024-03-22T11:40:11;20.30;43.90
5930;DHT22;2990;48.746;9.236;2024-03-22T11:42:41;20.50;12.20
5930;DHT22;2990;48.746;9.236;2024-03-22T11:45:09;20.50;32.80
5930;DHT22;2990;48.746;9.236;2024-03-22T11:47:35;20.70;28.80
5930;DHT22;2990;48.746;9.236;2024-03-22T11:50:01;20.80;24.30
5930;DHT22;2990;48.746;9.236;2024-03-22T11:52:27;21.00;28.40
5930;DHT22;2990;48.746;9.236;2024-03-22T11:54:53;21.30;27.50
5930;DHT22;2990;48.746;9.236;2024-03-22T11:57:21;21.60;16.50
5930;DHT22;2990;48.746;9.236;2024-03-22T11:59:46;21.60;19.60
5930;DHT22;2990;48.746;9.236;2024-03-22T12:02:12;21.30;5.50
5930;DHT22;2990;48.746;9.236;2024-03-22T12:04:47;21.10;4.70
5930;DHT22;2990;48.746;9.236;2024-03-22T12:07:14;21.10;8.90
5930;DHT22;2990;48.746;9.236;2024-03-22T12:09:41;21.20;10.40
5930;DHT22;2990;48.746;9.236;2024-03-22T12:12:08;21.40;1.00
5930;DHT22;2990;48.746;9.236;2024-03-22T12:14:35;21.10;6.10
5930;DHT22;2990;48.746;9.236;2024-03-22T12:17:02;21.30;1.00
5930;DHT22;2990;48.746;9.236;2024-03-22T12:19:28;21.20;19.90
5930;DHT22;2990;48.746;9.236;2024-03-22T12:21:53;21.50;15.70
5930;DHT22;2990;48.746;9.236;2024-03-22T12:24:19;21.70;1.00
5930;DHT22;2990;48.746;9.236;2024-03-22T12:26:45;21.50;1.00
5930;DHT22;2990;48.746;9.236;2024-03-22T12:29:12;21.40;1.00
5930;DHT22;2990;48.746;9.236;2024-03-22T12:31:38;21.40;1.00
5930;DHT22;2990;48.746;9.236;2024-03-22T12:34:03;21.10;1.00
5930;DHT22;2990;48.746;9.236;2024-03-22T12:36:29;21.00;1.00
5930;DHT22;2990;48.746;9.236;2024-03-22T12:38:54;21.00;1.00
5930;DHT22;2990;48.746;9.236;2024-03-22T12:41:20;21.00;1.00
5930;DHT22;2990;48.746;9.236;2024-03-22T12:43:46;21.00;1.00
5930;DHT22;2990;48.746;9.236;2024-03-22T12:46:11;20.80;1.00
5930;DHT22;2990;48.746;9.236;2024-03-22T12:48:37;20.90;1.00
5930;DHT22;2990;48.746;9.236;2024-03-22T12:51:02;20.90;1.00
5930;DHT22;2990;48.746;9.236;2024-03-22T12:53:28;20.80;1.00
5930;DHT22;2990;48.746;9.236;2024-03-22T12:55:54;20.90;1.00
5930;DHT22;2990;48.746;9.236;2024-03-22T12:58:19;21.10;1.00
5930;DHT22;2990;48.746;9.236;2024-03-22T13:00:45;21.10;1.00
5930;DHT22;2990;48.746;9.236;2024-03-22T13:03:11;21.10;1.00
5930;DHT22;2990;48.746;9.236;2024-03-22T13:05:37;21.10;1.00
5930;DHT22;2990;48.746;9.236;2024-03-22T13:08:03;21.10;1.00
5930;DHT22;2990;48.746;9.236;2024-03-22T13:10:28;21.10;1.00
5930;DHT22;2990;48.746;9.236;2024-03-22T13:12:54;21.00;1.00
5930;DHT22;2990;48.746;9.236;2024-03-22T13:15:20;21.10;1.00
5930;DHT22;2990;48.746;9.236;2024-03-22T13:17:45;21.20;1.00
5930;DHT22;2990;48.746;9.236;2024-03-22T13:20:11;21.00;1.00
5930;DHT22;2990;48.746;9.236;2024-03-22T13:22:40;21.10;1.00
5930;DHT22;2990;48.746;9.236;2024-03-22T13:25:06;21.20;1.00
5930;DHT22;2990;48.746;9.236;2024-03-22T13:27:33;21.30;1.00
5930;DHT22;2990;48.746;9.236;2024-03-22T13:29:59;21.40;1.00
5930;DHT22;2990;48.746;9.236;2024-03-22T13:32:25;21.40;1.00
5930;DHT22;2990;48.746;9.236;2024-03-22T13:34:51;21.10;1.00
5930;DHT22;2990;48.746;9.236;2024-03-22T13:37:16;20.80;1.00
5930;DHT22;2990;48.746;9.236;2024-03-22T13:39:42;20.70;1.00
5930;DHT22;2990;48.746;9.236;2024-03-22T13:42:07;20.70;1.00
5930;DHT22;2990;48.746;9.236;2024-03-22T13:44:34;20.70;1.00
5930;DHT22;2990;48.746;9.236;2024-03-22T13:47:00;20.80;1.00
5930;DHT22;2990;48.746;9.236;2024-03-22T13:49:25;20.80;1.00
5930;DHT22;2990;48.746;9.236;2024-03-22T13:51:51;21.00;1.00
5930;DHT22;2990;48.746;9.236;2024-03-22T13:54:16;21.10;1.00
5930;DHT22;2990;48.746;9.236;2024-03-22T13:56:42;21.10;1.00
5930;DHT22;2990;48.746;9.236;2024-03-22T13:59:08;20.90;1.00
5930;DHT22;2990;48.746;9.236;2024-03-22T14:01:37;20.90;1.00
5930;DHT22;2990;48.746;9.236;2024-03-22T14:04:04;20.90;1.00
5930;DHT22;2990;48.746;9.236;2024-03-22T14:06:30;21.10;1.00
5930;DHT22;2990;48.746;9.236;2024-03-22T14:08:57;21.10;1.00
5930;DHT22;2990;48.746;9.236;2024-03-22T14:11:27;21.30;1.00
5930;DHT22;2990;48.746;9.236;2024-03-22T14:13:52;21.50;1.00
5930;DHT22;2990;48.746;9.236;2024-03-22T14:16:18;21.50;1.00
5930;DHT22;2990;48.746;9.236;2024-03-22T14:18:43;21.60;1.00
5930;DHT22;2990;48.746;9.236;2024-03-22T14:21:09;21.40;1.00
5930;DHT22;2990;48.746;9.236;2024-03-22T14:23:34;21.30;1.00
5930;DHT22;2990;48.746;9.236;2024-03-22T14:26:00;21.20;1.00
5930;DHT22;2990;48.746;9.236;2024-03-22T14:28:25;21.00;1.00
5930;DHT22;2990;48.746;9.236;2024-03-22T14:30:51;20.60;1.00
5930;DHT22;2990;48.746;9.236;2024-03-22T14:33:16;20.30;1.00
5930;DHT22;2990;48.746;9.236;2024-03-22T14:35:42;19.90;1.00
5930;DHT22;2990;48.746;9.236;2024-03-22T14:38:08;19.70;8.50
5930;DHT22;2990;48.746;9.236;2024-03-22T14:40:34;19.50;18.90
5930;DHT22;2990;48.746;9.236;2024-03-22T14:43:03;19.40;19.40
5930;DHT22;2990;48.746;9.236;2024-03-22T14:45:30;19.10;22.60
5930;DHT22;2990;48.746;9.236;2024-03-22T14:47:55;19.00;23.50
5930;DHT22;2990;48.746;9.236;2024-03-22T14:50:22;18.90;22.10
5930;DHT22;2990;48.746;9.236;2024-03-22T14:52:49;18.90;27.70
5930;DHT22;2990;48.746;9.236;2024-03-22T14:55:15;18.80;25.90
5930;DHT22;2990;48.746;9.236;2024-03-22T14:57:41;18.70;26.10
5930;DHT22;2990;48.746;9.236;2024-03-22T15:00:06;18.60;32.20
5930;DHT22;2990;48.746;9.236;2024-03-22T15:02:36;18.70;30.80
5930;DHT22;2990;48.746;9.236;2024-03-22T15:05:02;18.70;19.80
5930;DHT22;2990;48.746;9.236;2024-03-22T15:07:29;18.70;21.10
5930;DHT22;2990;48.746;9.236;2024-03-22T15:09:55;18.60;13.10
5930;DHT22;2990;48.746;9.236;2024-03-22T15:12:21;18.50;15.80
5930;DHT22;2990;48.746;9.236;2024-03-22T15:14:46;18.30;26.20
5930;DHT22;2990;48.746;9.236;2024-03-22T15:17:12;18.20;28.90
5930;DHT22;2990;48.746;9.236;2024-03-22T15:19:41;18.10;25.50
5930;DHT22;2990;48.746;9.236;2024-03-22T15:22:08;17.90;38.70
5930;DHT22;2990;48.746;9.236;2024-03-22T15:24:34;17.80;40.50
5930;DHT22;2990;48.746;9.236;2024-03-22T15:26:59;17.80;33.20
5930;DHT22;2990;48.746;9.236;2024-03-22T15:29:25;17.70;51.10
5930;DHT22;2990;48.746;9.236;2024-03-22T15:31:50;17.60;48.30
5930;DHT22;2990;48.746;9.236;2024-03-22T15:34:16;17.60;45.50
5930;DHT22;2990;48.746;9.236;2024-03-22T15:36:41;17.60;46.90
5930;DHT22;2990;48.746;9.236;2024-03-22T15:39:07;17.50;51.50
5930;DHT22;2990;48.746;9.236;2024-03-22T15:41:33;17.40;56.00
5930;DHT22;2990;48.746;9.236;2024-03-22T15:43:59;17.30;29.40
5930;DHT22;2990;48.746;9.236;2024-03-22T15:46:24;17.30;47.50
5930;DHT22;2990;48.746;9.236;2024-03-22T15:48:50;17.20;48.10
5930;DHT22;2990;48.746;9.236;2024-03-22T15:51:16;17.20;51.80
5930;DHT22;2990;48.746;9.236;2024-03-22T15:53:42;17.20;62.00
5930;DHT22;2990;48.746;9.236;2024-03-22T15:56:08;17.10;58.10
5930;DHT22;2990;48.746;9.236;2024-03-22T16:01:55;16.90;56.20
5930;DHT22;2990;48.746;9.236;2024-03-22T16:04:21;16.90;63.40
5930;DHT22;2990;48.746;9.236;2024-03-22T16:06:47;16.90;31.10
5930;DHT22;2990;48.746;9.236;2024-03-22T16:09:12;16.80;46.70
5930;DHT22;2990;48.746;9.236;2024-03-22T16:11:39;16.90;99.10
5930;DHT22;2990;48.746;9.236;2024-03-22T16:14:18;16.80;93.40
5930;DHT22;2990;48.746;9.236;2024-03-22T16:16:46;16.70;66.80
5930;DHT22;2990;48.746;9.236;2024-03-22T16:19:12;16.70;95.50
5930;DHT22;2990;48.746;9.236;2024-03-22T16:21:37;16.60;98.30